Data for 10/16/2015

Time Sea-Level Adjusted Pressure Absolute Pressure Temperature Relative Humidity Dew Point   
(mb) (inHg) (mb) (inHg) (C) (F) (%) (C) (F)
00:05 1027 30.33 856 25.28 5.5 41.9 44 -5.8 21.6
00:10 1027 30.33 856 25.28 5.5 41.9 44 -5.9 21.5
00:15 1027 30.33 856 25.28 5.5 41.9 44 -5.9 21.4
00:20 1027 30.33 856 25.28 5.5 42 44 -5.9 21.4
00:25 1027 30.33 856 25.28 5.5 41.9 44 -5.9 21.3
00:30 1027 30.33 856 25.28 5.5 41.9 43 -6 21.3
00:35 1027 30.33 856 25.28 5.5 41.8 43 -6 21.1
00:40 1027 30.33 856 25.28 5.4 41.8 44 -6 21.2
00:45 1027 30.33 856 25.28 5.4 41.7 44 -6 21.2
00:50 1027 30.33 856 25.28 5.4 41.7 44 -6 21.2
00:55 1027 30.33 856 25.28 5.3 41.6 44 -6 21.1
01:00 1027 30.33 856 25.28 5.3 41.6 43 -6.2 20.9
01:05 1027 30.33 856 25.28 5.2 41.4 44 -6.1 21
01:10 1027 30.33 856 25.28 5.1 41.2 44 -6 21.2
01:15 1027 30.33 856 25.28 5 41 45 -6 21.2
01:20 1027 30.33 856 25.28 5 41 45 -6 21.2
01:25 1027 30.33 856 25.28 5 41 45 -6 21.3
01:30 1027 30.33 856 25.28 5 40.9 46 -5.8 21.5
01:35 1027 30.33 856 25.28 4.8 40.7 47 -5.6 21.8
01:40 1027 30.33 856 25.28 4.6 40.3 47 -5.6 21.8
01:45 1027 30.33 856 25.28 4.6 40.3 48 -5.6 21.9
01:50 1027 30.33 856 25.28 4.5 40.2 48 -5.6 21.9
01:55 1027 30.33 856 25.28 4.5 40.1 48 -5.5 22
02:00 1027 30.33 856 25.28 4.4 39.9 48 -5.6 22
02:05 1027 30.33 856 25.28 4.3 39.7 49 -5.4 22.2
02:10 1027 30.33 856 25.28 4.2 39.5 50 -5.3 22.4
02:15 1027 30.33 856 25.28 4.1 39.4 50 -5.3 22.4
02:20 1027 30.33 856 25.28 4 39.3 51 -5.3 22.5
02:25 1027 30.33 856 25.28 3.9 39 51 -5.2 22.6
02:30 1027 30.33 856 25.28 3.8 38.8 52 -5.2 22.7
02:35 1027 30.33 856 25.28 3.8 38.8 52 -5.3 22.5
02:40 1027 30.33 856 25.28 3.7 38.7 52 -5.2 22.6
02:45 1027 30.33 856 25.28 3.8 38.8 52 -5.2 22.6
02:50 1027 30.33 856 25.28 3.7 38.7 52 -5.2 22.6
02:55 1027 30.33 856 25.28 3.6 38.6 52 -5.2 22.6
03:00 1027 30.33 856 25.28 3.6 38.5 53 -5.2 22.6
03:05 1027 30.33 856 25.28 3.6 38.4 53 -5.2 22.6
03:10 1027 30.33 856 25.28 3.6 38.4 52 -5.2 22.6
03:15 1027 30.33 856 25.28 3.6 38.4 53 -5.2 22.7
03:20 1027 30.33 856 25.28 3.5 38.3 54 -4.9 23.2
03:25 1027 30.33 856 25.28 3.4 38.2 55 -4.8 23.4
03:30 1027 30.33 856 25.28 3.4 38.1 55 -4.7 23.5
03:35 1026 30.3 856 25.28 3.5 38.3 55 -4.6 23.7
03:40 1026 30.3 856 25.28 3.6 38.5 55 -4.7 23.6
03:45 1026 30.3 856 25.28 3.7 38.7 55 -4.5 24
03:50 1026 30.3 856 25.28 3.5 38.4 56 -4.5 23.9
03:55 1026 30.3 856 25.28 3.6 38.4 56 -4.4 24.1
04:00 1026 30.3 856 25.28 3.6 38.4 56 -4.3 24.2
04:05 1026 30.3 856 25.28 3.7 38.6 56 -4.2 24.5
04:10 1026 30.3 856 25.28 3.7 38.6 57 -4.2 24.5
04:15 1026 30.3 855 25.25 3.7 38.7 57 -4.1 24.7
04:20 1026 30.3 856 25.28 3.7 38.6 58 -3.8 25.1
04:25 1026 30.3 856 25.28 3.7 38.7 58 -3.9 25
04:30 1026 30.3 856 25.28 3.5 38.3 60 -3.6 25.5
04:35 1026 30.3 855 25.25 3.2 37.7 61 -3.6 25.5
04:40 1026 30.3 855 25.25 3.1 37.6 61 -3.7 25.3
04:45 1026 30.3 855 25.25 3.1 37.5 61 -3.7 25.4
04:50 1026 30.3 855 25.25 3 37.3 62 -3.7 25.3
04:55 1026 30.3 855 25.25 3 37.4 61 -3.7 25.3
05:00 1026 30.3 856 25.28 3.1 37.5 62 -3.6 25.5
05:05 1026 30.3 856 25.28 3 37.3 62 -3.6 25.5
05:10 1026 30.3 856 25.28 3 37.3 62 -3.6 25.5
05:15 1026 30.3 855 25.25 3 37.4 62 -3.5 25.6
05:20 1026 30.3 855 25.25 3 37.4 62 -3.5 25.7
05:25 1026 30.3 855 25.25 2.9 37.3 63 -3.4 25.8
05:30 1026 30.3 855 25.25 2.7 36.9 64 -3.5 25.7
05:35 1026 30.3 855 25.25 2.7 36.9 63 -3.5 25.7
05:40 1026 30.3 855 25.25 2.7 36.9 63 -3.6 25.5
05:45 1026 30.3 855 25.25 2.7 36.9 64 -3.5 25.7
05:50 1026 30.3 855 25.25 2.8 37 64 -3.5 25.8
05:55 1026 30.3 855 25.25 2.9 37.3 62 -3.6 25.4
06:00 1026 30.3 855 25.25 3.2 37.7 62 -3.4 25.8
06:05 1026 30.3 855 25.25 2.9 37.3 63 -3.4 25.9
06:10 1026 30.3 855 25.25 2.8 37 64 -3.3 26.1
06:15 1026 30.3 855 25.25 2.6 36.6 65 -3.4 25.9
06:20 1026 30.3 855 25.25 2.6 36.6 65 -3.4 26
06:25 1026 30.3 855 25.25 2.6 36.6 65 -3.3 26.1
06:30 1026 30.3 855 25.25 2.5 36.4 65 -3.4 25.9
06:35 1026 30.3 855 25.25 2.5 36.5 65 -3.3 26
06:40 1026 30.3 855 25.25 2.3 36.2 66 -3.4 25.9
06:45 1026 30.3 855 25.25 2.2 36 67 -3.4 26
06:50 1026 30.3 855 25.25 2.2 35.9 66 -3.4 25.8
06:55 1026 30.3 855 25.25 2.1 35.8 67 -3.4 25.9
07:00 1026 30.3 855 25.25 2.2 36 66 -3.5 25.7
07:05 1026 30.3 855 25.25 2.5 36.5 65 -3.4 25.9
07:10 1026 30.3 855 25.25 2.7 36.9 64 -3.4 25.9
07:15 1026 30.3 855 25.25 2.8 37.1 65 -3.2 26.2
07:20 1026 30.3 855 25.25 2.9 37.2 64 -3.3 26
07:25 1026 30.3 855 25.25 3 37.4 63 -3.4 26
07:30 1026 30.3 855 25.25 3.2 37.7 63 -3.2 26.2
07:35 1026 30.3 855 25.25 3.3 37.9 62 -3.3 26.1
07:40 1026 30.3 855 25.25 3.5 38.4 61 -3.3 26
07:45 1026 30.3 855 25.25 4 39.1 59 -3.4 25.8
07:50 1026 30.3 855 25.25 4.6 40.2 57 -3.2 26.2
07:55 1026 30.3 855 25.25 5 41 56 -3.1 26.4
08:00 1026 30.3 855 25.25 5.2 41.4 56 -3 26.7
08:05 1026 30.3 855 25.25 5.3 41.6 54 -3.1 26.4
08:10 1026 30.3 855 25.25 5.8 42.5 53 -2.9 26.7
08:15 1026 30.3 855 25.25 6.6 43.8 50 -3.1 26.4
08:20 1026 30.3 855 25.25 7 44.7 49 -3 26.7
08:25 1026 30.3 855 25.25 7.2 45 48 -3 26.5
08:30 1026 30.3 855 25.25 7.7 45.9 47 -2.8 26.9
08:35 1026 30.3 855 25.25 8.2 46.7 47 -2.6 27.4
08:40 1026 30.3 855 25.25 8.1 46.6 47 -2.6 27.3
08:45 1026 30.3 855 25.25 8.2 46.8 46 -2.8 27
08:50 1026 30.3 855 25.25 8.7 47.6 44 -2.8 27
08:55 1026 30.3 855 25.25 9.1 48.4 43 -2.7 27.2
09:00 1026 30.3 855 25.25 9.2 48.5 43 -2.6 27.4
09:05 1026 30.3 855 25.25 9.2 48.5 43 -2.7 27.2
09:10 1026 30.3 855 25.25 9.6 49.4 41 -3.1 26.5
09:15 1026 30.3 855 25.25 10.1 50.2 40 -2.9 26.8
09:20 1026 30.3 855 25.25 10.2 50.4 42 -2.1 28.3
09:25 1026 30.3 855 25.25 9.4 48.9 42 -2.7 27.1
09:30 1026 30.3 855 25.25 9.8 49.6 41 -2.7 27.2
09:35 1026 30.3 855 25.25 10.1 50.2 39 -3.1 26.4
09:40 1026 30.3 855 25.25 10.4 50.6 40 -2.8 27
09:45 1026 30.3 855 25.25 9.6 49.3 40 -3.2 26.2
09:50 1026 30.3 855 25.25 10.4 50.8 37 -3.6 25.4
09:55 1026 30.3 855 25.25 11.4 52.4 36 -3.1 26.5
10:00 1026 30.3 855 25.25 11.4 52.5 36 -3 26.5
10:05 1026 30.3 855 25.25 10.9 51.7 38 -2.7 27.2
10:10 1026 30.3 855 25.25 11 51.7 39 -2.3 27.9
10:15 1026 30.3 855 25.25 10.4 50.8 40 -2.7 27.2
10:20 1026 30.3 855 25.25 10.8 51.4 38 -2.8 26.9
10:25 1026 30.3 855 25.25 11.6 52.8 36 -2.9 26.7
10:30 1025 30.27 855 25.25 12.1 53.8 35 -2.9 26.8
10:35 1025 30.27 855 25.25 12.2 54 35 -2.9 26.7
10:40 1025 30.27 855 25.25 12.2 54 35 -2.8 27
10:45 1025 30.27 855 25.25 12.2 54 35 -2.6 27.3
10:50 1025 30.27 855 25.25 12.4 54.4 34 -3 26.5
10:55 1025 30.27 854 25.22 12.9 55.3 33 -2.8 26.9
11:00 1025 30.27 854 25.22 12.2 53.9 36 -2.5 27.4
11:05 1025 30.27 854 25.22 12.6 54.7 34 -2.8 27
11:10 1025 30.27 854 25.22 12.7 54.8 34 -2.8 27
11:15 1025 30.27 854 25.22 13.2 55.8 32 -2.9 26.8
11:20 1025 30.27 854 25.22 13.2 55.7 33 -2.5 27.4
11:25 1025 30.27 854 25.22 12.7 54.9 34 -2.8 26.9
11:30 1025 30.27 854 25.22 13.6 56.4 32 -2.8 27
11:35 1025 30.27 854 25.22 14 57.1 32 -2.5 27.4
11:40 1025 30.27 854 25.22 13.1 55.6 33 -2.6 27.4
11:45 1025 30.27 854 25.22 14 57.2 32 -2.4 27.7
11:50 1025 30.27 854 25.22 14.7 58.4 30 -2.7 27.2
11:55 1025 30.27 854 25.22 14.6 58.3 30 -2.6 27.3
12:00 1025 30.27 854 25.22 14.5 58 31 -2.3 27.9
12:05 1025 30.27 854 25.22 14.1 57.4 30 -3 26.6
12:10 1025 30.27 854 25.22 15 58.9 29 -2.6 27.3
12:15 1025 30.27 854 25.22 15.7 60.2 28 -2.8 26.9
12:20 1025 30.27 854 25.22 16.1 60.9 28 -2.2 28
12:25 1024 30.24 854 25.22 15.8 60.5 28 -2.4 27.7
12:30 1024 30.24 854 25.22 16 60.9 28 -2.5 27.5
12:35 1024 30.24 853 25.19 16.1 61 28 -2.1 28.1
12:40 1024 30.24 853 25.19 15.8 60.4 28 -2.5 27.5
12:45 1024 30.24 853 25.19 15.8 60.5 28 -2.7 27.2
12:50 1024 30.24 853 25.19 16.2 61.2 28 -2.3 27.9
12:55 1024 30.24 853 25.19 16.1 60.9 28 -2.5 27.6
13:00 1024 30.24 853 25.19 15.9 60.5 29 -2.2 28
13:05 1024 30.24 853 25.19 16.7 62 26 -2.8 27
13:10 1024 30.24 853 25.19 17.3 63.2 27 -1.8 28.8
13:15 1024 30.24 853 25.19 16.7 62 27 -2.4 27.7
13:20 1024 30.24 853 25.19 17.3 63.1 26 -2 28.3
13:25 1024 30.24 853 25.19 17.5 63.4 25 -2.7 27.1
13:30 1024 30.24 853 25.19 17.4 63.3 26 -2.2 28
13:35 1024 30.24 853 25.19 17.5 63.5 26 -2 28.3
13:40 1024 30.24 853 25.19 17.7 63.9 26 -2.1 28.2
13:45 1024 30.24 853 25.19 17.8 64 26 -1.9 28.6
13:50 1024 30.24 853 25.19 17.5 63.6 27 -1.8 28.8
13:55 1024 30.24 853 25.19 17.9 64.3 26 -1.9 28.6
14:00 1024 30.24 853 25.19 18.2 64.8 25 -2 28.4
14:05 1024 30.24 853 25.19 18.2 64.7 26 -1.8 28.8
14:10 1024 30.24 853 25.19 18.4 65.2 25 -1.6 29.1
14:15 1024 30.24 853 25.19 18.5 65.2 25 -2 28.4
14:20 1024 30.24 853 25.19 18.3 65 26 -1.6 29.2
14:25 1024 30.24 853 25.19 17.9 64.3 26 -1.8 28.8
14:30 1023 30.21 853 25.19 18.6 65.5 25 -1.8 28.8
14:35 1023 30.21 853 25.19 18.6 65.5 25 -1.8 28.8
14:40 1023 30.21 853 25.19 18.7 65.7 25 -1.6 29.2
14:45 1023 30.21 853 25.19 18.6 65.4 25 -1.7 28.9
14:50 1023 30.21 853 25.19 18.7 65.6 25 -1.4 29.4
14:55 1023 30.21 852 25.16 18.8 65.8 25 -1.6 29.1
15:00 1023 30.21 852 25.16 18.9 66.1 24 -2 28.4
15:05 1023 30.21 852 25.16 19 66.1 26 -1 30.1
15:10 1023 30.21 852 25.16 18.5 65.4 25 -1.9 28.5
15:15 1023 30.21 852 25.16 19.1 66.4 24 -1.9 28.6
15:20 1023 30.21 852 25.16 19 66.2 25 -1.5 29.3
15:25 1023 30.21 852 25.16 19.4 66.8 23 -1.9 28.6
15:30 1023 30.21 852 25.16 19.6 67.2 24 -1.5 29.3
15:35 1023 30.21 852 25.16 19.9 67.8 23 -1.5 29.3
15:40 1023 30.21 852 25.16 20 68 23 -1.3 29.6
15:45 1023 30.21 852 25.16 19.3 66.8 25 -1.3 29.7
15:50 1023 30.21 852 25.16 18.9 66 24 -1.7 28.9
15:55 1023 30.21 852 25.16 19.5 67.1 24 -1.7 28.9
16:00 1023 30.21 852 25.16 19.2 66.6 25 -1.4 29.5
16:05 1023 30.21 852 25.16 19.2 66.5 24 -1.9 28.7
16:10 1023 30.21 852 25.16 19.6 67.2 24 -1.6 29.1
16:15 1023 30.21 852 25.16 19.5 67 24 -1.3 29.7
16:20 1023 30.21 852 25.16 19.3 66.7 25 -1.2 29.8
16:25 1023 30.21 852 25.16 18.6 65.4 26 -0.9 30.3
16:30 1022 30.18 852 25.16 18 64.4 27 -1.3 29.7
16:35 1022 30.18 852 25.16 17.7 63.8 27 -1.4 29.4
16:40 1022 30.18 852 25.16 18 64.3 26 -1.6 29
16:45 1022 30.18 852 25.16 18.1 64.6 26 -1.4 29.5
16:50 1022 30.18 852 25.16 18.2 64.7 27 -1 30.2
16:55 1022 30.18 852 25.16 17.8 64 27 -1.4 29.5
17:00 1022 30.18 852 25.16 17.5 63.4 27 -1.4 29.4
17:05 1022 30.18 852 25.16 17.5 63.5 27 -1.4 29.5
17:10 1022 30.18 852 25.16 17.5 63.4 28 -1.1 30
17:15 1022 30.18 851 25.13 17.1 62.8 30 -0.5 31.2
17:20 1022 30.18 851 25.13 17 62.5 29 -1 30.3
17:25 1022 30.18 851 25.13 16.9 62.4 29 -1 30.2
17:30 1022 30.18 851 25.13 16.8 62.2 30 -0.7 30.7
17:35 1022 30.18 851 25.13 16.4 61.4 31 -0.9 30.4
17:40 1022 30.18 851 25.13 15.9 60.6 31 -0.9 30.3
17:45 1022 30.18 851 25.13 15.6 60 32 -0.9 30.4
17:50 1022 30.18 851 25.13 15.3 59.5 34 -0.4 31.3
17:55 1022 30.18 851 25.13 15 59 35 -0.1 31.8
18:00 1022 30.18 851 25.13 14.5 58.1 39 0.6 33.2
18:05 1022 30.18 851 25.13 13.7 56.7 43 1.3 34.3
18:10 1022 30.18 851 25.13 12.9 55.2 45 1.4 34.4
18:15 1022 30.18 852 25.16 12.4 54.4 46 1.1 33.9
18:20 1022 30.18 851 25.13 12.2 54 47 1.2 34.1
18:25 1022 30.18 851 25.13 11.9 53.5 46 0.8 33.5
18:30 1022 30.18 851 25.13 11.9 53.4 47 1.1 33.9
18:35 1022 30.18 851 25.13 11.7 53 47 0.8 33.4
18:40 1022 30.18 852 25.16 11.5 52.7 47 0.7 33.3
18:45 1022 30.18 852 25.16 11.4 52.5 39 -1.8 28.7
18:50 1022 30.18 852 25.16 12.8 55 36 -1.7 28.9
18:55 1023 30.21 852 25.16 12.7 54.9 38 -1.2 29.8
19:00 1023 30.21 852 25.16 12.4 54.4 37 -1.7 29
19:05 1023 30.21 852 25.16 12.2 53.9 37 -1.9 28.6
19:10 1023 30.21 852 25.16 12.1 53.8 37 -2.2 28
19:15 1023 30.21 852 25.16 12.6 54.6 33 -3.2 26.3
19:20 1023 30.21 852 25.16 13.3 56 32 -3 26.6
19:25 1023 30.21 852 25.16 13.7 56.6 31 -3 26.7
19:30 1023 30.21 852 25.16 13.9 57 31 -2.9 26.7
19:35 1023 30.21 852 25.16 14 57.1 31 -2.9 26.7
19:40 1023 30.21 852 25.16 14 57.2 31 -2.9 26.8
19:45 1023 30.21 852 25.16 14 57.2 31 -2.9 26.8
19:50 1023 30.21 852 25.16 14.1 57.4 31 -2.8 27
19:55 1023 30.21 852 25.16 14.2 57.5 31 -2.7 27.1
20:00 1023 30.21 852 25.16 14.2 57.5 31 -2.6 27.3
20:05 1023 30.21 852 25.16 14.1 57.4 31 -2.6 27.2
20:10 1023 30.21 852 25.16 14.1 57.4 31 -2.5 27.4
20:15 1023 30.21 852 25.16 14.1 57.3 32 -2.5 27.6
20:20 1023 30.21 852 25.16 14 57.2 32 -2.4 27.6
20:25 1023 30.21 852 25.16 14 57.1 32 -2.4 27.6
20:30 1023 30.21 852 25.16 13.9 57.1 32 -2.5 27.5
20:35 1023 30.21 852 25.16 13.9 57 32 -2.3 27.8
20:40 1023 30.21 852 25.16 13.8 56.8 33 -2.2 28
20:45 1023 30.21 852 25.16 13.6 56.5 33 -2.1 28.1
20:50 1023 30.21 852 25.16 13.4 56.1 34 -2 28.4
20:55 1023 30.21 852 25.16 13.1 55.7 35 -1.9 28.6
21:00 1023 30.21 852 25.16 12.9 55.2 36 -1.8 28.8
21:05 1023 30.21 852 25.16 12.7 54.8 36 -1.9 28.6
21:10 1023 30.21 852 25.16 12.5 54.5 37 -1.9 28.7
21:15 1023 30.21 852 25.16 12.4 54.3 37 -1.9 28.6
21:20 1023 30.21 852 25.16 12.3 54.2 37 -1.9 28.5
21:25 1023 30.21 852 25.16 12.2 53.9 37 -1.9 28.5
21:30 1023 30.21 852 25.16 12 53.6 38 -1.9 28.6
21:35 1023 30.21 852 25.16 11.9 53.3 38 -2 28.4
21:40 1023 30.21 852 25.16 11.9 53.3 38 -2 28.4
21:45 1023 30.21 852 25.16 11.8 53.2 38 -2.1 28.3
21:50 1023 30.21 852 25.16 11.8 53.3 38 -2.2 28.1
21:55 1023 30.21 852 25.16 11.9 53.3 37 -2.3 27.9
22:00 1023 30.21 852 25.16 11.8 53.3 37 -2.2 28.1
22:05 1023 30.21 852 25.16 11.8 53.2 38 -2.1 28.1
22:10 1023 30.21 852 25.16 11.6 52.9 38 -2.2 28.1
22:15 1023 30.21 852 25.16 11.5 52.7 38 -2.3 27.9
22:20 1023 30.21 852 25.16 11.5 52.6 38 -2.3 27.9
22:25 1023 30.21 852 25.16 11.4 52.5 38 -2.3 27.8
22:30 1023 30.21 852 25.16 11.4 52.5 38 -2.2 28
22:35 1023 30.21 852 25.16 11.3 52.3 39 -2.2 28
22:40 1023 30.21 852 25.16 11.1 52 39 -2.2 28.1
22:45 1023 30.21 852 25.16 10.9 51.7 39 -2.3 27.8
22:50 1023 30.21 852 25.16 10.8 51.4 40 -2.2 28
22:55 1023 30.21 852 25.16 10.7 51.2 40 -2.4 27.7
23:00 1023 30.21 852 25.16 10.7 51.3 39 -2.5 27.5
23:05 1023 30.21 852 25.16 10.7 51.2 40 -2.3 27.8
23:10 1023 30.21 852 25.16 10.7 51.2 40 -2.4 27.6
23:15 1023 30.21 852 25.16 10.5 50.9 41 -2.3 27.8
23:20 1023 30.21 852 25.16 10.3 50.6 41 -2.4 27.8
23:25 1023 30.21 852 25.16 10.2 50.4 41 -2.5 27.5
23:30 1023 30.21 852 25.16 10.3 50.5 41 -2.5 27.5
23:35 1023 30.21 852 25.16 10.1 50.3 41 -2.4 27.6
23:40 1022 30.18 852 25.16 9.9 49.9 42 -2.4 27.6
23:45 1022 30.18 852 25.16 9.9 49.7 42 -2.5 27.5
23:50 1022 30.18 852 25.16 9.8 49.6 42 -2.6 27.3
23:55 1022 30.18 852 25.16 9.8 49.7 41 -2.7 27.2
24:00 1022 30.18 852 25.16 9.8 49.7 41 -2.7 27.1